Time;durP1;ratioP1;P1;durP2;ratioP2;P2;SDS_P1;SDS_P2;PMS_P1;PMS_P2;Temp;Humidity;BMP_temperature;BMP_pressure;BME280_temperature;BME280_humidity;BME280_pressure;Samples;Min_cycle;Max_cycle;Signal;HPM_P1;HPM_P2
2023/08/27 00:01:11;;;;;;;9.77;7.88;;;;;;;19.02;100.00;95724.31;6190636;23;20004;-82
2023/08/27 00:03:38;;;;;;;16.92;9.18;;;;;;;19.05;100.00;95715.88;6191741;23;20016;-82
2023/08/27 00:06:03;;;;;;;10.32;8.63;;;;;;;19.05;100.00;95716.69;6216287;23;20018;-82
2023/08/27 00:08:29;;;;;;;14.90;10.77;;;;;;;18.84;100.00;95714.47;6190850;23;20363;-81
2023/08/27 00:11:03;;;;;;;12.48;10.23;;;;;;;18.70;100.00;95718.31;6190599;23;20008;-82
2023/08/27 00:13:29;;;;;;;12.38;10.85;;;;;;;18.66;100.00;95711.81;6190989;23;20000;-82
2023/08/27 00:15:54;;;;;;;12.80;11.25;;;;;;;18.80;100.00;95702.63;6215820;23;20022;-82
2023/08/27 00:18:20;;;;;;;13.32;10.88;;;;;;;18.61;100.00;95705.28;6215194;23;19999;-82
2023/08/27 00:20:46;;;;;;;14.13;10.98;;;;;;;18.63;100.00;95710.38;6240255;23;20000;-81
2023/08/27 00:23:17;;;;;;;17.88;11.90;;;;;;;18.69;100.00;95709.50;6215271;23;20012;-82
2023/08/27 00:25:43;;;;;;;15.02;10.95;;;;;;;18.70;100.00;95713.78;6190006;23;20023;-81
2023/08/27 00:28:14;;;;;;;18.40;10.95;;;;;;;18.69;100.00;95722.00;6242056;23;20094;-82
2023/08/27 00:30:41;;;;;;;14.70;10.98;;;;;;;18.66;100.00;95733.09;6190126;23;20004;-82
2023/08/27 00:33:13;;;;;;;12.93;10.98;;;;;;;18.70;100.00;95724.44;6190236;23;20065;-82
2023/08/27 00:35:38;;;;;;;16.13;11.93;;;;;;;18.71;100.00;95719.91;6190217;23;20456;-82
2023/08/27 00:38:06;;;;;;;11.68;9.82;;;;;;;18.48;100.00;95700.13;6215208;23;20004;-82
2023/08/27 00:40:32;;;;;;;11.57;10.38;;;;;;;18.50;100.00;95703.34;6190552;23;20004;-81
2023/08/27 00:43:09;;;;;;;15.77;13.13;;;;;;;18.57;100.00;95696.09;6190697;23;20066;-81
2023/08/27 00:45:34;;;;;;;17.33;11.05;;;;;;;18.32;100.00;95703.34;6191557;23;20039;-81
2023/08/27 00:48:00;;;;;;;14.23;10.13;;;;;;;18.52;100.00;95714.63;6190914;23;20004;-81
2023/08/27 00:50:26;;;;;;;11.95;10.02;;;;;;;18.63;100.00;95728.22;6190967;23;20078;-82
2023/08/27 00:52:53;;;;;;;12.73;10.30;;;;;;;18.80;100.00;95726.63;6189515;23;20012;-82
2023/08/27 00:55:19;;;;;;;12.75;8.73;;;;;;;18.88;100.00;95737.00;6243285;23;20433;-81
2023/08/27 00:57:52;;;;;;;12.52;9.27;;;;;;;18.96;100.00;95728.69;6189290;23;20062;-81
2023/08/27 01:00:21;;;;;;;10.98;9.13;;;;;;;18.97;100.00;95732.97;6214862;23;20004;-82
2023/08/27 01:02:48;;;;;;;14.65;10.35;;;;;;;18.73;100.00;95728.53;6190006;23;20094;-82
2023/08/27 01:05:14;;;;;;;13.20;9.95;;;;;;;18.55;100.00;95738.13;6217353;23;20008;-81
2023/08/27 01:07:43;;;;;;;13.13;10.30;;;;;;;18.47;100.00;95722.44;6190731;23;20000;-81
2023/08/27 01:10:31;;;;;;;11.10;9.55;;;;;;;18.12;100.00;95703.56;6214761;23;20004;-82
2023/08/27 01:13:34;;;;;;;11.57;10.38;;;;;;;18.09;100.00;95696.00;6190044;23;20004;-81
2023/08/27 01:16:02;;;;;;;14.38;10.60;;;;;;;18.33;100.00;95687.16;6190663;23;20023;-81
2023/08/27 01:18:30;;;;;;;12.80;9.38;;;;;;;18.74;100.00;95683.03;6215624;23;19996;-81
2023/08/27 01:20:56;;;;;;;13.05;9.48;;;;;;;18.53;100.00;95684.28;6190656;23;20020;-82
2023/08/27 01:23:24;;;;;;;12.77;9.45;;;;;;;18.75;100.00;95687.34;6191114;23;20007;-82
2023/08/27 01:25:52;;;;;;;12.18;10.23;;;;;;;18.77;100.00;95684.44;6192027;23;20012;-82
2023/08/27 01:28:40;;;;;;;11.45;8.70;;;;;;;18.99;100.00;95690.94;6191518;23;20341;-82
2023/08/27 01:31:12;;;;;;;10.57;7.95;;;;;;;19.03;100.00;95694.75;6214707;23;20011;-82
2023/08/27 01:33:38;;;;;;;10.00;7.38;;;;;;;19.07;100.00;95687.94;6190044;23;20000;-82
2023/08/27 01:36:04;;;;;;;10.38;7.50;;;;;;;19.00;100.00;95684.53;6215220;23;20027;-82
2023/08/27 01:38:30;;;;;;;10.93;8.43;;;;;;;18.60;100.00;95679.69;6190955;23;20029;-81
2023/08/27 01:41:08;;;;;;;9.00;7.47;;;;;;;18.97;100.00;95679.66;6189865;23;20015;-81
2023/08/27 01:43:33;;;;;;;12.52;7.20;;;;;;;18.85;100.00;95681.47;6191449;23;20012;-82
2023/08/27 01:45:59;;;;;;;10.10;7.82;;;;;;;18.75;100.00;95695.34;6189963;23;20564;-82
2023/08/27 01:48:25;;;;;;;10.20;7.90;;;;;;;18.99;100.00;95706.91;6188879;23;20030;-82
2023/08/27 01:50:50;;;;;;;10.30;7.65;;;;;;;19.07;100.00;95708.44;6190051;23;20008;-80
2023/08/27 01:53:16;;;;;;;10.55;8.05;;;;;;;18.81;100.00;95714.91;6215773;23;20000;-82
2023/08/27 01:55:41;;;;;;;12.05;7.80;;;;;;;18.93;100.00;95729.13;6189791;23;20011;-81
2023/08/27 01:58:07;;;;;;;14.07;8.32;;;;;;;18.83;100.00;95721.66;6189429;23;20422;-81
2023/08/27 02:00:35;;;;;;;11.07;8.10;;;;;;;19.02;100.00;95718.97;6214377;23;20003;-81
2023/08/27 02:03:01;;;;;;;9.10;7.15;;;;;;;18.61;100.00;95720.44;6217758;23;20007;-81
2023/08/27 02:05:26;;;;;;;9.85;7.47;;;;;;;18.84;100.00;95703.81;6217617;23;20091;-81
2023/08/27 02:07:52;;;;;;;9.07;6.68;;;;;;;18.55;100.00;95690.19;6192299;23;20004;-81
2023/08/27 02:10:20;;;;;;;10.10;7.53;;;;;;;18.52;100.00;95695.97;6192773;23;20042;-81
2023/08/27 02:12:47;;;;;;;10.32;7.32;;;;;;;18.34;100.00;95698.59;6192787;23;20008;-81
2023/08/27 02:15:13;;;;;;;9.52;7.60;;;;;;;18.41;100.00;95682.56;6218253;23;20007;-82
2023/08/27 02:17:38;;;;;;;13.18;7.95;;;;;;;18.45;100.00;95675.78;6217140;23;20003;-80
2023/08/27 02:20:09;;;;;;;10.77;7.82;;;;;;;18.59;100.00;95686.06;6192335;23;20014;-79
2023/08/27 02:22:35;;;;;;;11.93;8.88;;;;;;;18.53;100.00;95680.81;6192290;23;20082;-81
2023/08/27 02:25:07;;;;;;;12.75;8.70;;;;;;;18.68;100.00;95675.94;6217544;23;20000;-81
2023/08/27 02:27:33;;;;;;;12.80;8.93;;;;;;;18.58;100.00;95665.78;6192784;23;20655;-81
2023/08/27 02:29:58;;;;;;;10.23;8.88;;;;;;;18.57;100.00;95668.66;6192006;23;20008;-81
2023/08/27 02:32:24;;;;;;;9.90;7.95;;;;;;;18.70;100.00;95657.84;6216066;23;20021;-81
2023/08/27 02:34:50;;;;;;;10.75;8.18;;;;;;;18.97;100.00;95652.22;6216749;23;20014;-81
2023/08/27 02:37:16;;;;;;;10.07;7.35;;;;;;;18.93;100.00;95659.84;6191994;23;20008;-81
2023/08/27 02:39:41;;;;;;;11.38;7.68;;;;;;;19.09;100.00;95666.41;6186960;23;20008;-81
2023/08/27 02:42:10;;;;;;;9.88;8.43;;;;;;;19.16;100.00;95687.63;6190761;23;20359;-81
2023/08/27 02:44:36;;;;;;;11.52;7.70;;;;;;;18.85;100.00;95684.16;6190751;23;20008;-81
2023/08/27 02:47:02;;;;;;;10.95;8.00;;;;;;;18.85;100.00;95689.47;6191415;23;20004;-81
2023/08/27 02:49:27;;;;;;;11.02;8.52;;;;;;;18.83;100.00;95686.22;6217414;23;20028;-81
2023/08/27 02:51:54;;;;;;;10.65;7.95;;;;;;;18.70;100.00;95681.00;6191774;23;20012;-81
2023/08/27 02:54:19;;;;;;;10.75;9.52;;;;;;;18.89;100.00;95690.66;6192289;23;20348;-81
2023/08/27 02:56:45;;;;;;;11.63;8.68;;;;;;;18.94;100.00;95688.09;6192033;23;20004;-81
2023/08/27 02:59:10;;;;;;;11.77;9.40;;;;;;;19.03;100.00;95700.09;6191799;23;20450;-81
2023/08/27 03:01:42;;;;;;;9.85;8.18;;;;;;;19.25;100.00;95694.28;6216741;23;20011;-80
2023/08/27 03:04:08;;;;;;;11.93;8.30;;;;;;;19.17;100.00;95692.72;6190565;23;20030;-81
2023/08/27 03:06:34;;;;;;;16.05;8.50;;;;;;;18.96;100.00;95688.72;6190168;23;20428;-81
2023/08/27 03:08:59;;;;;;;9.43;8.02;;;;;;;18.91;100.00;95701.88;6188392;23;20004;-81
2023/08/27 03:11:25;;;;;;;10.70;8.18;;;;;;;19.11;100.00;95704.28;6188610;23;20036;-81
2023/08/27 03:13:51;;;;;;;10.00;7.95;;;;;;;19.11;100.00;95703.47;6213573;23;20447;-81
2023/08/27 03:16:17;;;;;;;11.23;7.90;;;;;;;19.15;100.00;95704.66;6189724;23;20007;-81
2023/08/27 03:18:42;;;;;;;8.88;7.25;;;;;;;19.20;100.00;95697.59;6188983;23;20000;-81
2023/08/27 03:21:08;;;;;;;11.35;7.88;;;;;;;18.81;100.00;95701.59;6213444;23;20004;-81
2023/08/27 03:23:36;;;;;;;12.32;8.30;;;;;;;18.82;100.00;95690.72;6189525;23;20000;-81
2023/08/27 03:26:13;;;;;;;15.27;8.45;;;;;;;18.89;100.00;95687.97;6189363;23;20004;-81
2023/08/27 03:28:39;;;;;;;11.02;7.63;;;;;;;18.88;100.00;95685.53;6214331;23;20016;-81
2023/08/27 03:31:05;;;;;;;8.82;7.07;;;;;;;18.80;100.00;95681.31;6214008;23;20499;-81
2023/08/27 03:33:31;;;;;;;7.35;6.38;;;;;;;18.74;100.00;95672.38;6189876;23;20008;-81
2023/08/27 03:35:58;;;;;;;8.60;7.10;;;;;;;18.74;100.00;95668.91;6189305;23;20029;-81
2023/08/27 03:38:26;;;;;;;10.82;7.35;;;;;;;18.77;100.00;95671.94;6214863;23;20008;-81
2023/08/27 03:40:53;;;;;;;8.90;7.22;;;;;;;18.58;100.00;95660.47;6213372;23;20008;-80
2023/08/27 03:43:18;;;;;;;10.85;8.20;;;;;;;18.08;100.00;95665.94;6188271;23;20061;-80
2023/08/27 03:45:44;;;;;;;13.20;8.43;;;;;;;18.32;100.00;95668.75;6214281;23;20103;-81
2023/08/27 03:48:22;;;;;;;10.00;8.25;;;;;;;18.47;100.00;95669.19;6212969;23;20051;-81
2023/08/27 03:50:48;;;;;;;8.68;7.78;;;;;;;18.45;100.00;95676.59;6189287;23;20011;-80
2023/08/27 03:53:17;;;;;;;9.57;7.75;;;;;;;18.43;100.00;95678.66;6189254;23;20004;-81
2023/08/27 03:55:43;;;;;;;7.85;6.75;;;;;;;18.66;100.00;95678.00;6213123;23;20004;-81
2023/08/27 03:58:10;;;;;;;8.27;6.95;;;;;;;18.55;100.00;95674.22;6214131;23;20016;-81
2023/08/27 04:00:37;;;;;;;12.30;7.57;;;;;;;18.75;100.00;95678.53;6188511;23;20014;-81
2023/08/27 04:03:05;;;;;;;9.98;8.45;;;;;;;18.85;100.00;95678.81;6189751;23;20012;-81
2023/08/27 04:05:31;;;;;;;8.70;7.40;;;;;;;18.66;100.00;95680.66;6188905;23;20014;-81
2023/08/27 04:08:04;;;;;;;8.30;7.10;;;;;;;18.53;100.00;95684.28;6188669;23;20027;-80
2023/08/27 04:10:29;;;;;;;10.23;6.80;;;;;;;18.58;100.00;95686.28;6214880;23;20004;-81
2023/08/27 04:12:56;;;;;;;9.13;7.40;;;;;;;18.55;100.00;95684.88;6191075;23;20066;-81
2023/08/27 04:15:22;;;;;;;8.85;7.95;;;;;;;18.09;100.00;95690.69;6191702;23;20069;-81
2023/08/27 04:17:48;;;;;;;7.88;6.65;;;;;;;18.52;100.00;95700.50;6215919;23;20421;-81
2023/08/27 04:20:19;;;;;;;7.90;6.93;;;;;;;18.43;100.00;95696.47;6190939;23;20015;-81
2023/08/27 04:22:45;;;;;;;8.70;7.43;;;;;;;18.60;100.00;95693.00;6215923;23;20004;-81
2023/08/27 04:25:14;;;;;;;8.38;6.68;;;;;;;18.60;100.00;95690.34;6216430;23;20004;-81
2023/08/27 04:27:39;;;;;;;9.45;6.97;;;;;;;18.45;100.00;95691.75;6191197;23;20012;-81
2023/08/27 04:30:19;;;;;;;8.95;6.30;;;;;;;18.38;100.00;95697.16;6190419;23;20011;-81
2023/08/27 04:32:45;;;;;;;9.88;7.20;;;;;;;18.39;100.00;95696.13;6214794;23;20050;-81
2023/08/27 04:35:10;;;;;;;12.57;6.82;;;;;;;18.36;100.00;95691.22;6216280;23;20012;-81
2023/08/27 04:37:36;;;;;;;10.65;6.85;;;;;;;18.34;100.00;95698.59;6190676;23;20015;-81
2023/08/27 04:40:03;;;;;;;7.38;6.35;;;;;;;18.44;100.00;95698.91;6189927;23;20015;-81
2023/08/27 04:42:29;;;;;;;9.70;7.03;;;;;;;18.54;100.00;95693.91;6190292;23;20777;-81
2023/08/27 04:44:54;;;;;;;10.65;6.45;;;;;;;18.82;100.00;95696.06;6190180;23;20004;-81
2023/08/27 04:47:22;;;;;;;8.45;6.35;;;;;;;18.90;100.00;95697.59;6190277;23;20008;-81
2023/08/27 04:49:47;;;;;;;8.50;7.10;;;;;;;19.20;100.00;95681.63;6191187;23;20066;-81
2023/08/27 04:52:14;;;;;;;8.20;6.95;;;;;;;18.96;100.00;95680.72;6189407;23;20004;-81
2023/08/27 04:54:40;;;;;;;9.40;6.47;;;;;;;18.80;100.00;95668.00;6189917;23;20018;-81
2023/08/27 04:57:08;;;;;;;12.02;6.72;;;;;;;18.48;100.00;95670.03;6190276;23;20110;-81
2023/08/27 04:59:34;;;;;;;19.65;7.22;;;;;;;18.59;100.00;95659.41;6190310;23;20007;-81
2023/08/27 05:02:00;;;;;;;27.58;7.32;;;;;;;18.55;100.00;95658.25;6214214;23;20004;-81
2023/08/27 05:04:29;;;;;;;10.05;8.13;;;;;;;18.57;100.00;95658.81;6191077;23;20008;-81
2023/08/27 05:06:55;;;;;;;11.75;7.10;;;;;;;18.49;100.00;95650.34;6190288;23;20004;-81
2023/08/27 05:09:20;;;;;;;10.45;8.57;;;;;;;18.57;100.00;95640.19;6189668;23;20011;-81
2023/08/27 05:11:46;;;;;;;10.45;9.35;;;;;;;18.53;100.00;95638.19;6215408;23;20031;-81
2023/08/27 05:14:13;;;;;;;13.85;10.98;;;;;;;18.36;100.00;95638.78;6191458;23;20389;-81
2023/08/27 05:16:41;;;;;;;12.00;10.38;;;;;;;18.33;100.00;95633.09;6189483;23;20008;-80
2023/08/27 05:19:06;;;;;;;13.38;10.93;;;;;;;18.38;100.00;95633.28;6190473;23;20452;-81
2023/08/27 05:21:32;;;;;;;12.13;10.48;;;;;;;18.66;100.00;95622.06;6189961;23;20000;-81
2023/08/27 05:23:57;;;;;;;13.38;10.77;;;;;;;18.29;100.00;95619.44;6189308;23;20007;-81
2023/08/27 05:26:23;;;;;;;11.93;10.63;;;;;;;18.43;100.00;95617.41;6190136;23;20383;-81
2023/08/27 05:28:48;;;;;;;14.30;10.77;;;;;;;18.41;100.00;95616.00;6189850;23;20004;-81
2023/08/27 05:31:14;;;;;;;13.23;10.48;;;;;;;18.25;100.00;95604.94;6214454;23;20011;-80
2023/08/27 05:33:39;;;;;;;11.93;10.07;;;;;;;18.14;100.00;95597.69;6189743;23;20008;-81
2023/08/27 05:36:05;;;;;;;13.02;10.88;;;;;;;18.18;100.00;95587.44;6190697;23;20000;-81
2023/08/27 05:38:30;;;;;;;12.52;10.73;;;;;;;17.97;100.00;95586.81;6191103;23;20715;-80
2023/08/27 05:40:56;;;;;;;12.60;9.85;;;;;;;17.96;100.00;95577.22;6189643;23;20008;-81
2023/08/27 05:43:23;;;;;;;12.63;9.27;;;;;;;17.86;100.00;95577.72;6190174;23;20450;-81
2023/08/27 05:45:49;;;;;;;11.27;9.27;;;;;;;18.12;100.00;95595.25;6190138;23;20012;-81
2023/08/27 05:48:16;;;;;;;11.13;8.32;;;;;;;18.32;100.00;95610.19;6190776;23;20035;-80
2023/08/27 05:50:44;;;;;;;10.27;8.20;;;;;;;18.36;100.00;95606.03;6189551;23;20008;-80
2023/08/27 05:53:11;;;;;;;9.75;7.93;;;;;;;18.43;100.00;95614.75;6190739;23;20008;-81
2023/08/27 05:55:37;;;;;;;9.43;7.68;;;;;;;18.38;100.00;95607.47;6189828;23;20004;-80
2023/08/27 05:58:03;;;;;;;10.32;7.85;;;;;;;18.58;100.00;95614.38;6190462;23;20012;-80
2023/08/27 06:00:29;;;;;;;10.45;8.52;;;;;;;19.09;100.00;95613.09;6214981;23;20007;-81
2023/08/27 06:02:55;;;;;;;11.55;9.70;;;;;;;19.22;100.00;95620.09;6215957;23;20011;-81
2023/08/27 06:05:20;;;;;;;11.93;7.93;;;;;;;19.20;100.00;95612.31;6190036;23;20008;-81
2023/08/27 06:07:46;;;;;;;11.57;9.52;;;;;;;19.36;100.00;95626.03;6190017;23;20344;-81
2023/08/27 06:10:12;;;;;;;12.27;10.55;;;;;;;19.44;100.00;95621.16;6189796;23;20006;-81
2023/08/27 06:12:37;;;;;;;12.25;9.68;;;;;;;19.61;100.00;95618.63;6189631;23;20013;-81
2023/08/27 06:15:04;;;;;;;11.48;9.10;;;;;;;19.61;100.00;95615.16;6190056;23;20436;-81
2023/08/27 06:17:30;;;;;;;11.30;8.77;;;;;;;19.51;100.00;95608.53;6189887;23;20146;-81
2023/08/27 06:19:56;;;;;;;10.55;8.10;;;;;;;19.45;100.00;95606.81;6187704;23;20008;-81
2023/08/27 06:22:24;;;;;;;11.63;9.00;;;;;;;19.47;100.00;95604.69;6188189;23;20008;-81
2023/08/27 06:24:49;;;;;;;10.93;8.35;;;;;;;19.79;100.00;95617.75;6189886;23;20111;-81
2023/08/27 06:27:16;;;;;;;9.82;7.60;;;;;;;19.70;100.00;95632.47;6188562;23;20018;-81
2023/08/27 06:29:45;;;;;;;10.95;7.35;;;;;;;19.80;100.00;95623.91;6212610;23;20005;-81
2023/08/27 06:32:14;;;;;;;11.25;8.07;;;;;;;19.91;100.00;95629.22;6190512;23;20024;-80
2023/08/27 06:34:40;;;;;;;9.38;7.32;;;;;;;19.82;100.00;95635.97;6189724;23;20027;-80
2023/08/27 06:37:06;;;;;;;10.52;8.68;;;;;;;19.58;100.00;95635.09;6190364;23;20357;-81
2023/08/27 06:39:33;;;;;;;10.73;8.50;;;;;;;19.71;100.00;95642.91;6191673;23;20379;-80
2023/08/27 06:41:58;;;;;;;11.30;7.97;;;;;;;19.53;100.00;95649.13;6214153;23;20007;-81
2023/08/27 06:44:25;;;;;;;9.48;7.00;;;;;;;19.69;100.00;95644.19;6190125;23;20062;-81
2023/08/27 06:46:54;;;;;;;12.10;7.22;;;;;;;19.77;100.00;95633.16;6189709;23;20319;-80
2023/08/27 06:49:20;;;;;;;9.85;7.20;;;;;;;19.79;100.00;95652.44;6189019;23;20004;-79
2023/08/27 06:51:49;;;;;;;9.60;7.30;;;;;;;19.87;100.00;95643.28;6189255;23;20004;-80
2023/08/27 06:54:14;;;;;;;10.45;7.32;;;;;;;19.68;100.00;95639.88;6189581;23;20003;-80
2023/08/27 06:56:40;;;;;;;10.52;6.90;;;;;;;19.67;100.00;95640.94;6189700;23;20421;-79
2023/08/27 06:59:11;;;;;;;10.63;7.07;;;;;;;20.01;100.00;95629.44;6214243;23;20000;-80
2023/08/27 07:01:39;;;;;;;10.80;7.00;;;;;;;20.05;100.00;95628.97;6187965;23;20083;-80
2023/08/27 07:04:05;;;;;;;9.85;7.10;;;;;;;20.29;100.00;95640.44;6190503;23;20543;-79
2023/08/27 07:06:31;;;;;;;15.52;6.85;;;;;;;20.67;100.00;95645.28;6215625;23;20023;-80
2023/08/27 07:08:57;;;;;;;10.13;7.07;;;;;;;20.72;100.00;95642.69;6189329;23;20066;-80
2023/08/27 07:11:38;;;;;;;9.65;7.13;;;;;;;20.82;100.00;95645.56;6189228;23;20847;-80
2023/08/27 07:14:06;;;;;;;9.57;7.20;;;;;;;20.64;100.00;95645.75;6188932;23;20004;-79
2023/08/27 07:16:31;;;;;;;11.88;8.85;;;;;;;20.48;100.00;95663.28;6214607;23;20405;-80
2023/08/27 07:18:59;;;;;;;11.93;8.27;;;;;;;20.53;100.00;95660.78;6214939;23;20003;-79
2023/08/27 07:21:25;;;;;;;9.55;8.38;;;;;;;20.45;100.00;95661.91;6189738;23;20004;-79
2023/08/27 07:23:51;;;;;;;9.15;7.95;;;;;;;20.54;100.00;95656.25;6213598;23;20004;-79
2023/08/27 07:26:22;;;;;;;10.18;8.05;;;;;;;20.46;100.00;95658.19;6188877;23;20317;-79
2023/08/27 07:28:48;;;;;;;9.10;8.10;;;;;;;20.32;100.00;95670.19;6188423;23;20127;-80
2023/08/27 07:31:13;;;;;;;10.90;8.25;;;;;;;20.44;100.00;95675.50;6189178;23;20441;-80
2023/08/27 07:33:39;;;;;;;10.98;8.52;;;;;;;20.17;100.00;95680.53;6188466;23;20008;-80
2023/08/27 07:36:05;;;;;;;9.15;8.25;;;;;;;19.82;100.00;95694.69;6214388;23;20061;-81
2023/08/27 07:38:30;;;;;;;9.77;7.85;;;;;;;20.04;100.00;95702.09;6214792;23;20452;-81
2023/08/27 07:40:56;;;;;;;10.52;8.02;;;;;;;20.00;100.00;95694.56;6213724;23;20004;-80
2023/08/27 07:43:28;;;;;;;9.05;7.68;;;;;;;19.89;100.00;95694.56;6188839;23;20629;-80
2023/08/27 07:45:53;;;;;;;10.07;8.23;;;;;;;20.27;100.00;95688.75;6190275;23;20035;-79
2023/08/27 07:48:20;;;;;;;9.13;8.00;;;;;;;20.15;100.00;95677.25;6191523;23;20015;-80
2023/08/27 07:50:48;;;;;;;9.80;7.93;;;;;;;20.15;100.00;95671.91;6191086;23;20012;-80
2023/08/27 07:53:13;;;;;;;10.30;8.25;;;;;;;20.25;100.00;95666.81;6217057;23;20000;-79
2023/08/27 07:55:39;;;;;;;9.00;7.47;;;;;;;20.29;100.00;95654.63;6214368;23;20004;-80
2023/08/27 07:58:05;;;;;;;8.75;6.82;;;;;;;20.69;100.00;95645.84;6190833;23;20000;-81
2023/08/27 08:00:31;;;;;;;10.60;7.28;;;;;;;20.98;100.00;95638.66;6188971;23;20126;-80
2023/08/27 08:02:57;;;;;;;10.25;8.27;;;;;;;21.20;100.00;95630.78;6191992;23;20142;-80
2023/08/27 08:05:23;;;;;;;8.80;7.10;;;;;;;21.29;100.00;95633.84;6191071;23;20439;-81
2023/08/27 08:07:49;;;;;;;12.40;6.97;;;;;;;21.41;100.00;95630.09;6190574;23;20512;-80
2023/08/27 08:10:15;;;;;;;8.07;6.47;;;;;;;21.15;100.00;95654.75;6189803;23;19996;-80
2023/08/27 08:12:41;;;;;;;8.57;6.00;;;;;;;21.01;100.00;95669.44;6214986;23;20004;-80
2023/08/27 08:15:07;;;;;;;6.57;4.65;;;;;;;20.98;100.00;95669.94;6216038;23;20000;-80
2023/08/27 08:17:37;;;;;;;7.43;4.55;;;;;;;21.12;100.00;95671.25;6241373;23;20004;-80
2023/08/27 08:20:10;;;;;;;7.60;5.95;;;;;;;21.11;100.00;95672.31;6240631;23;20000;-80
2023/08/27 08:22:36;;;;;;;7.18;5.10;;;;;;;21.08;100.00;95670.13;6189438;23;20551;-80
2023/08/27 08:25:01;;;;;;;9.95;6.18;;;;;;;20.98;100.00;95675.28;6214981;23;20008;-80
2023/08/27 08:27:29;;;;;;;7.13;4.80;;;;;;;20.31;100.00;95681.91;6190729;23;20440;-80
2023/08/27 08:29:54;;;;;;;6.30;4.60;;;;;;;20.66;100.00;95691.75;6215684;23;20007;-79
2023/08/27 08:32:20;;;;;;;7.47;4.63;;;;;;;20.36;100.00;95702.56;6189290;23;20003;-80
2023/08/27 08:34:46;;;;;;;7.68;4.35;;;;;;;20.43;100.00;95711.28;6215923;23;19996;-80
2023/08/27 08:37:11;;;;;;;6.35;3.95;;;;;;;20.79;100.00;95720.91;6215246;23;20008;-80
2023/08/27 08:39:37;;;;;;;9.38;5.15;;;;;;;20.67;100.00;95728.91;6216122;23;20070;-81
2023/08/27 08:42:26;;;;;;;11.57;4.82;;;;;;;20.56;100.00;95731.63;6190481;23;20010;-82
2023/08/27 08:45:06;;;;;;;8.82;4.80;;;;;;;20.42;100.00;95729.16;6190118;23;20015;-81
2023/08/27 08:47:36;;;;;;;7.47;4.82;;;;;;;20.39;100.00;95737.63;6190594;23;20001;-82
2023/08/27 08:50:05;;;;;;;6.93;3.40;;;;;;;20.29;100.00;95740.06;6190545;23;20082;-81
2023/08/27 08:52:36;;;;;;;7.50;4.60;;;;;;;20.54;100.00;95737.19;6190012;23;20032;-81
2023/08/27 08:55:06;;;;;;;7.95;5.20;;;;;;;20.51;100.00;95743.00;6188726;23;20087;-80
2023/08/27 08:57:36;;;;;;;6.30;4.18;;;;;;;20.67;100.00;95746.81;6190466;23;20011;-81
2023/08/27 09:00:02;;;;;;;6.68;3.88;;;;;;;20.79;100.00;95750.28;6190058;23;20642;-81
2023/08/27 09:02:28;;;;;;;6.10;3.67;;;;;;;20.68;100.00;95741.22;6215294;23;20333;-81
2023/08/27 09:04:55;;;;;;;5.50;4.18;;;;;;;20.65;100.00;95744.34;6190670;23;20011;-81
2023/08/27 09:07:21;;;;;;;6.97;4.20;;;;;;;20.60;100.00;95748.81;6190134;23;20004;-81
2023/08/27 09:09:51;;;;;;;5.10;3.83;;;;;;;20.61;100.00;95737.06;6190929;23;20018;-81
2023/08/27 09:12:19;;;;;;;7.82;4.20;;;;;;;20.66;100.00;95729.97;6189762;23;20114;-80
2023/08/27 09:14:46;;;;;;;5.93;4.18;;;;;;;20.84;100.00;95734.34;6190898;23;20004;-81
2023/08/27 09:17:16;;;;;;;6.82;3.92;;;;;;;21.08;100.00;95728.94;6215052;23;20026;-80
2023/08/27 09:19:43;;;;;;;8.43;4.18;;;;;;;20.84;100.00;95715.63;6189646;23;20027;-81
2023/08/27 09:22:09;;;;;;;6.75;4.07;;;;;;;20.44;100.00;95718.22;6190087;23;20002;-81
2023/08/27 09:24:36;;;;;;;8.57;4.50;;;;;;;20.68;100.00;95711.81;6216116;23;20761;-81
2023/08/27 09:27:05;;;;;;;8.52;5.40;;;;;;;21.03;100.00;95696.78;6187699;23;20004;-81
2023/08/27 09:29:33;;;;;;;5.80;4.03;;;;;;;21.13;100.00;95683.59;6189473;23;20458;-81
2023/08/27 09:31:58;;;;;;;6.63;4.10;;;;;;;21.40;100.00;95676.63;6241324;23;20086;-81
2023/08/27 09:34:38;;;;;;;8.05;3.85;;;;;;;21.47;100.00;95686.38;6190073;23;20004;-81
2023/08/27 09:37:06;;;;;;;6.38;3.80;;;;;;;21.67;100.00;95686.72;6190770;23;20352;-81
2023/08/27 09:39:33;;;;;;;6.47;3.67;;;;;;;21.99;100.00;95694.16;6190024;23;20007;-81
2023/08/27 09:42:00;;;;;;;5.57;3.63;;;;;;;22.31;100.00;95689.06;6189876;23;20054;-82
2023/08/27 09:44:25;;;;;;;6.32;3.47;;;;;;;22.00;100.00;95695.78;6189661;23;20011;-81
2023/08/27 09:46:51;;;;;;;5.30;3.30;;;;;;;21.98;100.00;95692.56;6190046;23;20313;-81
2023/08/27 09:49:17;;;;;;;7.35;3.67;;;;;;;21.56;100.00;95683.06;6190416;23;20004;-81
2023/08/27 09:51:42;;;;;;;5.63;3.40;;;;;;;21.94;100.00;95678.84;6214765;23;20110;-81
2023/08/27 09:54:30;;;;;;;6.13;3.13;;;;;;;22.24;100.00;95669.69;6190573;23;20016;-81
2023/08/27 09:56:59;;;;;;;6.25;3.30;;;;;;;22.26;100.00;95668.34;6190558;23;20000;-82
2023/08/27 09:59:30;;;;;;;4.90;2.28;;;;;;;22.16;100.00;95654.81;6215367;23;20011;-81
2023/08/27 10:01:55;;;;;;;5.72;2.80;;;;;;;22.04;100.00;95660.25;6215357;23;20396;-81
2023/08/27 10:04:21;;;;;;;4.13;2.47;;;;;;;22.07;100.00;95659.78;6214765;23;20042;-81
2023/08/27 10:06:47;;;;;;;6.07;3.05;;;;;;;22.31;100.00;95656.91;6215060;23;20007;-81
2023/08/27 10:09:20;;;;;;;3.92;2.58;;;;;;;22.43;100.00;95651.44;6189137;23;20006;-81
2023/08/27 10:11:46;;;;;;;3.92;2.40;;;;;;;22.28;100.00;95641.34;6190211;23;20008;-83
2023/08/27 10:14:14;;;;;;;5.10;2.80;;;;;;;22.10;100.00;95650.44;6214237;23;20440;-80
2023/08/27 10:16:40;;;;;;;5.93;2.50;;;;;;;21.82;100.00;95654.81;6190336;23;20045;-80
2023/08/27 10:19:06;;;;;;;6.82;2.92;;;;;;;21.45;100.00;95653.69;6189637;23;20008;-80
2023/08/27 10:21:45;;;;;;;5.90;2.58;;;;;;;21.98;100.00;95665.78;6188508;23;20065;-80
2023/08/27 10:24:11;;;;;;;4.80;2.17;;;;;;;21.82;100.00;95664.72;6189521;23;19997;-81
2023/08/27 10:26:37;;;;;;;4.57;2.53;;;;;;;21.71;100.00;95662.97;6189703;23;20015;-80
2023/08/27 10:29:04;;;;;;;4.68;2.15;;;;;;;21.96;100.00;95662.53;6189233;23;20007;-80
2023/08/27 10:31:36;;;;;;;5.47;2.60;;;;;;;21.81;100.00;95673.81;6240803;23;19999;-80
2023/08/27 10:34:08;;;;;;;3.97;1.93;;;;;;;21.40;100.00;95663.25;6214117;23;20007;-80
2023/08/27 10:36:37;;;;;;;4.03;1.95;;;;;;;21.43;100.00;95659.28;6189911;23;20337;-81
2023/08/27 10:39:07;;;;;;;4.63;2.50;;;;;;;21.38;100.00;95643.94;6214829;23;20468;-80
2023/08/27 10:41:35;;;;;;;5.35;2.72;;;;;;;21.62;100.00;95643.81;6188409;23;20142;-80
2023/08/27 10:44:02;;;;;;;5.78;2.92;;;;;;;21.70;100.00;95642.59;6213769;23;20035;-80
2023/08/27 10:46:28;;;;;;;5.22;2.85;;;;;;;21.64;100.00;95645.19;6214364;23;20010;-80
2023/08/27 10:48:54;;;;;;;7.07;2.85;;;;;;;21.49;100.00;95639.56;6188777;23;20016;-80
2023/08/27 10:51:27;;;;;;;5.47;2.40;;;;;;;21.61;100.00;95647.53;6214248;23;20014;-80
2023/08/27 10:53:54;;;;;;;3.40;2.45;;;;;;;21.38;100.00;95649.31;6189595;23;20004;-80
2023/08/27 10:56:29;;;;;;;5.05;2.30;;;;;;;21.38;100.00;95654.66;6188691;23;20012;-80
2023/08/27 10:58:59;;;;;;;4.40;2.35;;;;;;;21.29;100.00;95656.06;6214330;23;20019;-80
2023/08/27 11:01:25;;;;;;;4.60;2.47;;;;;;;21.36;100.00;95653.25;6214176;23;20011;-80
2023/08/27 11:03:53;;;;;;;4.20;2.78;;;;;;;21.17;100.00;95663.34;6214396;23;20019;-80
2023/08/27 11:06:21;;;;;;;6.15;3.03;;;;;;;21.05;100.00;95676.75;6189570;23;20506;-80
2023/08/27 11:08:52;;;;;;;7.72;3.22;;;;;;;20.70;100.00;95690.22;6240498;23;20002;-80
2023/08/27 11:11:24;;;;;;;5.57;2.67;;;;;;;20.52;100.00;95693.03;6188098;23;20344;-80
2023/08/27 11:14:00;;;;;;;4.28;2.33;;;;;;;20.54;100.00;95686.44;6189056;23;20047;-80
2023/08/27 11:16:29;;;;;;;3.65;2.13;;;;;;;20.46;100.00;95684.09;6214091;23;20705;-80
2023/08/27 11:18:55;;;;;;;6.25;3.40;;;;;;;20.45;100.00;95683.25;6214661;23;20000;-80
2023/08/27 11:21:24;;;;;;;9.40;6.13;;;;;;;20.85;100.00;95674.50;6192602;23;20055;-80